createdAt,value
2023-03-31T00:00:00.239Z,-3.78
2023-03-31T00:02:30.276Z,-3.79
2023-03-31T00:05:01.252Z,-3.82
2023-03-31T00:08:20.088Z,-3.83
2023-03-31T00:10:48.621Z,-3.83
2023-03-31T00:13:17.596Z,-3.87
2023-03-31T00:15:46.542Z,-3.91
2023-03-31T00:18:14.753Z,-3.94
2023-03-31T00:20:48.415Z,-3.98
2023-03-31T00:23:45.079Z,-4.02
2023-03-31T00:26:13.334Z,-4.05
2023-03-31T00:28:42.034Z,-4.05
2023-03-31T00:31:36.480Z,-4.06
2023-03-31T00:35:20.800Z,-4.11
2023-03-31T00:37:49.663Z,-4.15
2023-03-31T00:40:19.081Z,-4.19
2023-03-31T00:42:51.036Z,-4.18
2023-03-31T00:45:24.697Z,-4.17
2023-03-31T00:47:55.182Z,-4.15
2023-03-31T00:53:52.074Z,-4.07
2023-03-31T00:56:48.280Z,-4.02
2023-03-31T01:03:07.085Z,-4.04
2023-03-31T01:06:06.790Z,-4.06
2023-03-31T01:09:00.627Z,-4.02
2023-03-31T01:11:31.149Z,-3.99
2023-03-31T01:13:59.642Z,-3.99
2023-03-31T01:16:28.036Z,-4.07
2023-03-31T01:18:57.777Z,-4.17
2023-03-31T01:21:35.424Z,-4.25
2023-03-31T01:24:19.187Z,-4.31
2023-03-31T01:31:05.177Z,-4.37
2023-03-31T01:33:59.464Z,-4.42
2023-03-31T01:36:27.679Z,-4.43
2023-03-31T01:39:17.884Z,-4.43
2023-03-31T01:42:04.222Z,-4.38
2023-03-31T01:44:49.228Z,-4.38
2023-03-31T01:48:03.243Z,-4.39
2023-03-31T01:51:18.014Z,-4.39
2023-03-31T01:53:52.354Z,-4.42
2023-03-31T01:56:39.174Z,-4.45
2023-03-31T01:59:11.965Z,-4.48
2023-03-31T02:01:46.740Z,-4.53
2023-03-31T02:04:18.455Z,-4.60
2023-03-31T02:06:53.247Z,-4.66
2023-03-31T02:09:43.008Z,-4.72
2023-03-31T02:12:11.918Z,-4.78
2023-03-31T02:14:44.828Z,-4.79
2023-03-31T02:17:30.713Z,-4.77
2023-03-31T02:20:15.405Z,-4.74
2023-03-31T02:22:52.391Z,-4.72
2023-03-31T02:25:48.956Z,-4.69
2023-03-31T02:28:28.630Z,-4.66
2023-03-31T02:31:12.313Z,-4.63
2023-03-31T02:33:42.797Z,-4.59
2023-03-31T02:36:11.583Z,-4.58
2023-03-31T02:38:45.266Z,-4.57
2023-03-31T02:41:13.820Z,-4.58
2023-03-31T02:43:42.226Z,-4.59
2023-03-31T02:46:13.103Z,-4.60
2023-03-31T02:48:45.302Z,-4.62
2023-03-31T02:51:37.414Z,-4.64
2023-03-31T02:54:12.495Z,-4.68
2023-03-31T02:57:25.295Z,-4.72
2023-03-31T03:00:09.623Z,-4.77
2023-03-31T03:03:34.637Z,-4.80
2023-03-31T03:06:32.541Z,-4.86
2023-03-31T03:09:58.118Z,-4.91
2023-03-31T03:13:17.470Z,-4.96
2023-03-31T03:16:28.659Z,-5.02
2023-03-31T03:19:27.432Z,-5.07
2023-03-31T03:22:00.111Z,-5.09
2023-03-31T03:24:53.847Z,-5.09
2023-03-31T03:27:25.101Z,-5.07
2023-03-31T03:29:53.765Z,-5.06
2023-03-31T03:32:22.037Z,-5.03
2023-03-31T03:34:50.932Z,-5.00
2023-03-31T03:37:22.777Z,-4.93
2023-03-31T03:40:41.633Z,-4.86
2023-03-31T03:43:14.190Z,-4.80
2023-03-31T03:45:42.533Z,-4.75
2023-03-31T03:48:13.095Z,-4.71
2023-03-31T03:50:42.254Z,-4.65
2023-03-31T03:53:11.272Z,-4.60
2023-03-31T03:56:09.984Z,-4.49
2023-03-31T03:58:38.428Z,-4.28
2023-03-31T04:01:13.040Z,-3.94
2023-03-31T04:04:06.597Z,-3.44
2023-03-31T04:07:01.000Z,-2.58
2023-03-31T04:09:29.463Z,-1.60
2023-03-31T04:12:48.687Z,-0.78
2023-03-31T04:16:07.918Z,0.28
2023-03-31T04:19:04.165Z,1.13
2023-03-31T04:22:22.719Z,1.83
2023-03-31T04:24:52.980Z,2.56
2023-03-31T04:27:28.135Z,3.04
2023-03-31T04:30:00.946Z,3.50
2023-03-31T04:32:33.241Z,3.96
2023-03-31T04:35:03.081Z,4.31
2023-03-31T04:37:35.148Z,4.63
2023-03-31T04:40:08.278Z,4.94
2023-03-31T04:42:41.383Z,5.23
2023-03-31T04:45:34.525Z,5.47
2023-03-31T04:48:07.137Z,5.79
2023-03-31T04:50:36.014Z,6.00
2023-03-31T04:53:55.757Z,6.14
2023-03-31T04:56:24.214Z,6.17
2023-03-31T04:59:17.646Z,6.07
2023-03-31T05:01:50.930Z,5.92
2023-03-31T05:04:19.459Z,5.81
2023-03-31T05:06:48.393Z,5.80
2023-03-31T05:09:41.742Z,5.89
2023-03-31T05:13:01.017Z,5.89
2023-03-31T05:18:48.647Z,5.57
2023-03-31T05:21:19.455Z,5.57
2023-03-31T05:23:49.054Z,5.65
2023-03-31T05:26:17.686Z,5.57
2023-03-31T05:37:57.059Z,5.28
2023-03-31T05:40:25.249Z,4.90
2023-03-31T05:42:53.859Z,4.64
2023-03-31T05:45:46.308Z,4.35
2023-03-31T05:48:15.354Z,4.04
2023-03-31T05:51:35.376Z,3.83
2023-03-31T05:54:27.197Z,3.58
2023-03-31T05:56:55.025Z,3.41
2023-03-31T05:59:22.017Z,3.25
2023-03-31T06:01:53.495Z,3.14
2023-03-31T06:07:45.170Z,2.97
2023-03-31T06:10:43.027Z,2.91
2023-03-31T06:14:27.847Z,2.95
2023-03-31T06:16:57.752Z,2.91
2023-03-31T06:19:26.729Z,2.92
2023-03-31T06:21:55.173Z,3.02
2023-03-31T06:24:23.826Z,3.17
2023-03-31T06:26:53.947Z,3.31
2023-03-31T06:29:22.612Z,3.40
2023-03-31T06:31:51.459Z,3.56
2023-03-31T06:35:35.897Z,3.76
2023-03-31T06:38:04.359Z,4.08
2023-03-31T06:40:32.655Z,4.32
2023-03-31T06:43:25.866Z,4.52
2023-03-31T06:46:20.106Z,4.70
2023-03-31T06:49:15.389Z,4.80
2023-03-31T06:51:44.925Z,4.96
2023-03-31T06:54:14.137Z,5.13
2023-03-31T06:56:42.547Z,5.30
2023-03-31T06:59:36.593Z,5.47
2023-03-31T07:02:09.513Z,5.62
2023-03-31T07:04:38.199Z,5.73
2023-03-31T07:07:06.782Z,5.81
2023-03-31T07:10:00.099Z,5.90
2023-03-31T07:12:34.331Z,6.07
2023-03-31T07:15:32.816Z,6.23
2023-03-31T07:18:02.479Z,6.46
2023-03-31T07:20:34.044Z,6.67
2023-03-31T07:23:04.756Z,6.83
2023-03-31T07:25:34.627Z,6.93
2023-03-31T07:28:04.834Z,7.02
2023-03-31T07:30:58.674Z,7.10
2023-03-31T07:33:27.569Z,7.12
2023-03-31T07:36:08.358Z,7.11
2023-03-31T07:39:30.436Z,7.18
2023-03-31T07:41:59.585Z,7.24
2023-03-31T07:44:36.062Z,7.33
2023-03-31T07:47:06.419Z,7.44
2023-03-31T07:49:35.304Z,7.51
2023-03-31T07:52:03.705Z,7.57
2023-03-31T07:54:32.170Z,7.62
2023-03-31T07:57:03.577Z,7.63
2023-03-31T07:59:32.478Z,7.70
2023-03-31T08:02:02.554Z,7.78
2023-03-31T08:08:43.465Z,7.92
2023-03-31T08:11:18.324Z,7.93
2023-03-31T08:13:50.747Z,7.88
2023-03-31T08:17:10.569Z,7.84
2023-03-31T08:20:28.564Z,7.81
2023-03-31T08:26:39.423Z,7.67
2023-03-31T08:29:07.789Z,7.59
2023-03-31T08:31:37.648Z,7.56
2023-03-31T08:34:06.127Z,7.50
2023-03-31T08:36:37.366Z,7.48
2023-03-31T08:46:37.552Z,7.71
2023-03-31T08:49:39.670Z,7.73
2023-03-31T08:53:28.103Z,7.78
2023-03-31T08:57:38.033Z,7.85
2023-03-31T09:00:10.271Z,7.89
2023-03-31T09:02:55.478Z,7.92
2023-03-31T09:06:03.559Z,7.95
2023-03-31T09:08:42.695Z,7.92
2023-03-31T09:12:06.002Z,7.89
2023-03-31T09:14:55.066Z,7.87
2023-03-31T09:17:26.857Z,7.84
2023-03-31T09:20:00.459Z,7.81
2023-03-31T09:23:20.518Z,7.77
2023-03-31T09:25:49.131Z,7.72
2023-03-31T09:28:35.277Z,7.73
2023-03-31T09:31:29.468Z,7.78
2023-03-31T09:34:28.990Z,7.83
2023-03-31T09:36:57.665Z,7.92
2023-03-31T09:39:26.097Z,8.04
2023-03-31T09:41:55.853Z,8.15
2023-03-31T09:45:14.058Z,8.30
2023-03-31T09:48:14.348Z,8.52
2023-03-31T09:51:08.792Z,8.65
2023-03-31T09:54:01.616Z,8.78
2023-03-31T09:56:55.565Z,8.89
2023-03-31T09:59:35.437Z,8.98
2023-03-31T10:02:50.038Z,9.05
2023-03-31T10:09:00.131Z,9.16
2023-03-31T10:11:28.684Z,9.21
2023-03-31T10:14:02.393Z,9.27
2023-03-31T10:16:36.492Z,9.37
2023-03-31T10:19:23.318Z,9.43
2023-03-31T10:22:52.558Z,9.51
2023-03-31T10:25:23.327Z,9.58
2023-03-31T10:27:53.652Z,9.60
2023-03-31T10:30:54.611Z,9.61
2023-03-31T10:33:54.660Z,9.62
2023-03-31T10:36:28.017Z,9.63
2023-03-31T10:38:57.002Z,9.69
2023-03-31T10:43:05.441Z,9.79
2023-03-31T10:45:38.637Z,9.90
2023-03-31T10:48:31.473Z,9.99
2023-03-31T10:51:18.096Z,10.09
2023-03-31T10:53:49.694Z,10.26
2023-03-31T10:56:52.705Z,10.41
2023-03-31T10:59:31.101Z,10.47
2023-03-31T11:06:48.340Z,10.64
2023-03-31T11:09:30.108Z,10.70
2023-03-31T11:12:02.881Z,10.78
2023-03-31T11:14:38.436Z,10.89
2023-03-31T11:17:35.940Z,11.01
2023-03-31T11:20:07.888Z,11.08
2023-03-31T11:23:05.563Z,11.18
2023-03-31T11:25:36.869Z,11.27
2023-03-31T11:28:21.605Z,11.31
2023-03-31T11:32:00.336Z,11.22
2023-03-31T11:34:46.115Z,11.25
2023-03-31T11:37:53.162Z,11.39
2023-03-31T11:41:36.805Z,11.50
2023-03-31T11:44:12.953Z,11.56
2023-03-31T11:47:07.979Z,11.65
2023-03-31T11:50:05.172Z,11.82
2023-03-31T11:52:37.831Z,11.92
2023-03-31T11:55:15.668Z,11.81
2023-03-31T11:58:22.040Z,11.81
2023-03-31T12:01:18.280Z,11.90
2023-03-31T12:04:33.133Z,11.96
2023-03-31T12:07:24.244Z,11.88
2023-03-31T12:14:07.694Z,11.57
2023-03-31T12:16:47.372Z,11.54
2023-03-31T12:19:36.898Z,11.55
2023-03-31T12:22:41.574Z,11.57
2023-03-31T12:26:01.846Z,11.54
2023-03-31T12:28:32.945Z,11.55
2023-03-31T12:31:01.701Z,11.52
2023-03-31T12:43:57.302Z,11.58
2023-03-31T12:46:30.789Z,11.57
2023-03-31T12:53:09.991Z,11.59
2023-03-31T12:56:04.283Z,11.64
2023-03-31T12:59:36.416Z,11.67
2023-03-31T13:02:15.413Z,11.77
2023-03-31T13:05:35.218Z,11.84
2023-03-31T13:08:54.036Z,11.98
2023-03-31T13:15:35.217Z,12.03
2023-03-31T13:18:05.674Z,11.90
2023-03-31T13:20:38.949Z,11.70
2023-03-31T13:23:23.001Z,11.63
2023-03-31T13:25:58.411Z,11.69
2023-03-31T13:32:27.794Z,11.73
2023-03-31T13:39:11.119Z,11.59
2023-03-31T13:43:21.951Z,11.49
2023-03-31T13:46:39.100Z,11.38
2023-03-31T13:49:24.733Z,11.32
2023-03-31T13:52:08.705Z,11.30
2023-03-31T13:55:32.463Z,11.24
2023-03-31T13:58:35.306Z,11.05
2023-03-31T14:02:24.181Z,10.96
2023-03-31T14:05:07.828Z,10.90
2023-03-31T14:07:48.118Z,10.90
2023-03-31T14:11:08.325Z,10.86
2023-03-31T14:13:37.021Z,10.76
2023-03-31T14:16:58.193Z,10.71
2023-03-31T14:19:58.146Z,10.59
2023-03-31T14:22:47.162Z,10.48
2023-03-31T14:26:12.886Z,10.45
2023-03-31T14:28:58.425Z,10.40
2023-03-31T14:32:17.147Z,10.30
2023-03-31T14:35:39.002Z,10.21
2023-03-31T14:41:30.637Z,10.04
2023-03-31T14:44:01.897Z,10.00
2023-03-31T14:46:34.426Z,9.94
2023-03-31T14:53:05.338Z,9.91
2023-03-31T14:55:49.776Z,9.88
2023-03-31T14:59:21.121Z,9.82
2023-03-31T15:05:37.891Z,9.75
2023-03-31T15:08:57.587Z,9.69
2023-03-31T15:12:17.431Z,9.62
2023-03-31T15:14:51.565Z,9.55
2023-03-31T15:18:11.352Z,9.51
2023-03-31T15:20:44.439Z,9.46
2023-03-31T15:23:40.585Z,9.40
2023-03-31T15:26:41.271Z,9.34
2023-03-31T15:29:17.859Z,9.28
2023-03-31T15:31:47.053Z,9.23
2023-03-31T15:34:43.621Z,9.18
2023-03-31T15:37:41.106Z,9.10
2023-03-31T15:41:04.200Z,9.02
2023-03-31T15:43:43.546Z,8.91
2023-03-31T15:50:46.622Z,8.72
2023-03-31T15:54:06.444Z,8.62
2023-03-31T15:57:49.619Z,8.49
2023-03-31T16:00:47.463Z,8.39
2023-03-31T16:03:38.120Z,8.32
2023-03-31T16:06:09.925Z,8.30
2023-03-31T16:08:44.811Z,8.29
2023-03-31T16:11:53.186Z,8.29
2023-03-31T16:14:29.991Z,8.27
2023-03-31T16:17:12.253Z,8.24
2023-03-31T16:19:48.946Z,8.20
2023-03-31T16:22:21.241Z,8.13
2023-03-31T16:24:49.962Z,8.07
2023-03-31T16:27:18.371Z,8.01
2023-03-31T16:29:48.412Z,7.96
2023-03-31T16:32:18.975Z,7.91
2023-03-31T16:35:38.560Z,7.88
2023-03-31T16:39:22.598Z,7.81
2023-03-31T16:41:50.981Z,7.74
2023-03-31T16:44:49.930Z,7.69
2023-03-31T16:48:40.833Z,7.61
2023-03-31T16:51:35.576Z,7.54
2023-03-31T16:54:04.236Z,7.50
2023-03-31T16:56:59.374Z,7.45
2023-03-31T17:00:23.135Z,7.40
2023-03-31T17:09:52.698Z,7.17
2023-03-31T17:12:53.102Z,7.12
2023-03-31T17:15:21.537Z,7.11
2023-03-31T17:17:53.451Z,7.11
2023-03-31T17:20:23.218Z,7.13
2023-03-31T17:24:07.395Z,7.16
2023-03-31T17:27:27.899Z,7.21
2023-03-31T17:30:50.419Z,7.24
2023-03-31T17:33:44.563Z,7.30
2023-03-31T17:37:29.752Z,7.33
2023-03-31T17:40:24.677Z,7.35
2023-03-31T17:42:53.782Z,7.34
2023-03-31T17:45:47.928Z,7.34
2023-03-31T17:48:16.859Z,7.32
2023-03-31T17:50:46.463Z,7.30
2023-03-31T17:56:08.133Z,7.27
2023-03-31T17:58:38.765Z,7.25
2023-03-31T18:01:58.151Z,7.25
2023-03-31T18:04:27.366Z,7.24
2023-03-31T18:06:57.886Z,7.22
2023-03-31T18:10:18.833Z,7.19
2023-03-31T18:16:55.584Z,7.10
2023-03-31T18:19:24.811Z,7.07
2023-03-31T18:26:22.772Z,7.03
2023-03-31T18:29:45.661Z,7.00
2023-03-31T18:32:15.076Z,6.98
2023-03-31T18:35:09.694Z,6.94
2023-03-31T18:37:38.468Z,6.92
2023-03-31T18:40:08.496Z,6.90
2023-03-31T18:42:38.048Z,6.88
2023-03-31T18:54:59.055Z,6.77
2023-03-31T18:57:31.705Z,6.74
2023-03-31T19:00:50.579Z,6.71
2023-03-31T19:04:15.762Z,6.67
2023-03-31T19:06:53.699Z,6.62
2023-03-31T19:09:50.505Z,6.58
2023-03-31T19:13:35.386Z,6.53
2023-03-31T19:16:24.904Z,6.47
2023-03-31T19:18:55.903Z,6.40
2023-03-31T19:25:35.551Z,6.28
2023-03-31T19:29:21.320Z,6.22
2023-03-31T19:33:31.590Z,6.15
2023-03-31T19:36:51.732Z,6.11
2023-03-31T19:39:45.749Z,6.09
2023-03-31T19:42:15.849Z,6.08
2023-03-31T19:45:35.667Z,6.08
2023-03-31T19:48:34.173Z,6.07
2023-03-31T19:51:08.752Z,6.06
2023-03-31T19:54:02.646Z,6.04
2023-03-31T19:56:33.696Z,6.03
2023-03-31T19:59:04.576Z,6.00
2023-03-31T20:01:33.120Z,5.98
2023-03-31T20:04:05.587Z,5.96
2023-03-31T20:06:34.997Z,5.96
2023-03-31T20:09:28.619Z,5.96
2023-03-31T20:11:57.619Z,5.97
2023-03-31T20:14:28.567Z,5.97
2023-03-31T20:17:03.568Z,5.97
2023-03-31T20:19:32.190Z,5.95
2023-03-31T20:22:02.269Z,5.93
2023-03-31T20:24:35.010Z,5.90
2023-03-31T20:27:05.188Z,5.88
2023-03-31T20:31:15.643Z,5.85
2023-03-31T20:34:36.704Z,5.80
2023-03-31T20:37:56.969Z,5.76
2023-03-31T20:41:40.366Z,5.71
2023-03-31T20:48:20.208Z,5.61
2023-03-31T20:50:49.348Z,5.60
2023-03-31T20:53:18.151Z,5.58
2023-03-31T20:55:46.784Z,5.56
2023-03-31T20:59:08.512Z,5.54
2023-03-31T21:01:40.123Z,5.52
2023-03-31T21:10:07.133Z,5.46
2023-03-31T21:12:38.345Z,5.40
2023-03-31T21:15:31.996Z,5.38
2023-03-31T21:18:06.386Z,5.36
2023-03-31T21:21:01.769Z,5.34
2023-03-31T21:23:36.248Z,5.34
2023-03-31T21:26:33.674Z,5.33
2023-03-31T21:32:03.348Z,5.32
2023-03-31T21:34:32.632Z,5.31
2023-03-31T21:39:54.682Z,5.33
2023-03-31T21:42:24.552Z,5.32
2023-03-31T21:44:59.217Z,5.32
2023-03-31T21:47:54.331Z,5.33
2023-03-31T21:50:48.813Z,5.34
2023-03-31T21:53:44.538Z,5.34
2023-03-31T21:56:37.947Z,5.33
2023-03-31T21:59:32.373Z,5.34
2023-03-31T22:02:04.802Z,5.33
2023-03-31T22:04:33.850Z,5.31
2023-03-31T22:07:02.201Z,5.29
2023-03-31T22:10:21.966Z,5.26
2023-03-31T22:13:41.833Z,5.23
2023-03-31T22:16:20.367Z,5.20
2023-03-31T22:18:50.755Z,5.17
2023-03-31T22:21:25.786Z,5.16
2023-03-31T22:23:55.857Z,5.15
2023-03-31T22:26:24.457Z,5.15
2023-03-31T22:29:45.201Z,5.13
2023-03-31T22:32:20.000Z,5.11
2023-03-31T22:34:51.138Z,5.08
2023-03-31T22:37:19.443Z,5.04
2023-03-31T22:39:47.793Z,5.02
2023-03-31T22:42:17.158Z,4.99
2023-03-31T22:44:45.546Z,4.96
2023-03-31T22:47:39.188Z,4.94
2023-03-31T22:50:31.943Z,4.92
2023-03-31T22:53:01.369Z,4.91
2023-03-31T22:55:55.469Z,4.89
2023-03-31T22:58:24.154Z,4.88
2023-03-31T23:01:43.093Z,4.86
2023-03-31T23:04:11.446Z,4.87
2023-03-31T23:06:40.219Z,4.87
2023-03-31T23:09:08.567Z,4.87
2023-03-31T23:11:37.538Z,4.88
2023-03-31T23:14:57.026Z,4.89
2023-03-31T23:17:26.710Z,4.90
2023-03-31T23:20:24.869Z,4.91
2023-03-31T23:23:19.880Z,4.93
2023-03-31T23:25:48.281Z,4.94
2023-03-31T23:28:42.746Z,4.95
2023-03-31T23:31:11.148Z,4.96
2023-03-31T23:33:40.049Z,4.97
2023-03-31T23:36:09.081Z,4.98
2023-03-31T23:38:37.732Z,4.99
2023-03-31T23:41:31.981Z,5.00
2023-03-31T23:44:00.668Z,5.02
2023-03-31T23:46:32.140Z,5.02
2023-03-31T23:49:02.985Z,5.02
2023-03-31T23:51:57.444Z,5.02
2023-03-31T23:54:51.853Z,5.04
2023-03-31T23:57:45.156Z,5.04
